sensor_id;sensor_type;location;lat;lon;timestamp;pressure;altitude;pressure_sealevel;temperature;humidity
48624;BME280;34422;45.802;16.114;2023-09-19T00:00:26;65980.25;;;20.57;100.00
48624;BME280;34422;45.802;16.114;2023-09-19T00:02:58;65986.22;;;20.61;100.00
48624;BME280;34422;45.802;16.114;2023-09-19T00:05:29;65986.78;;;20.58;100.00
48624;BME280;34422;45.802;16.114;2023-09-19T00:07:57;65980.78;;;20.58;100.00
48624;BME280;34422;45.802;16.114;2023-09-19T00:10:28;65974.25;;;20.57;100.00
48624;BME280;34422;45.802;16.114;2023-09-19T00:12:58;65977.53;;;20.55;100.00
48624;BME280;34422;45.802;16.114;2023-09-19T00:15:37;65982.97;;;20.55;100.00
48624;BME280;34422;45.802;16.114;2023-09-19T00:18:05;65974.25;;;20.52;100.00
48624;BME280;34422;45.802;16.114;2023-09-19T00:20:35;65971.03;;;20.49;100.00
48624;BME280;34422;45.802;16.114;2023-09-19T00:23:03;65967.75;;;20.48;100.00
48624;BME280;34422;45.802;16.114;2023-09-19T00:25:31;65954.16;;;20.38;100.00
48624;BME280;34422;45.802;16.114;2023-09-19T00:27:58;65962.34;;;20.41;100.00
48624;BME280;34422;45.802;16.114;2023-09-19T00:30:25;65947.13;;;20.27;100.00
48624;BME280;34422;45.802;16.114;2023-09-19T00:32:52;65949.84;;;20.27;100.00
48624;BME280;34422;45.802;16.114;2023-09-19T00:35:21;65940.06;;;20.22;100.00
48624;BME280;34422;45.802;16.114;2023-09-19T00:37:52;65940.63;;;20.18;100.00
48624;BME280;34422;45.802;16.114;2023-09-19T00:40:19;65932.47;;;20.10;100.00
48624;BME280;34422;45.802;16.114;2023-09-19T00:42:47;65902.63;;;19.85;100.00
48624;BME280;34422;45.802;16.114;2023-09-19T00:45:15;65882.53;;;19.71;100.00
48624;BME280;34422;45.802;16.114;2023-09-19T00:47:48;65878.22;;;19.67;100.00
48624;BME280;34422;45.802;16.114;2023-09-19T00:50:20;65885.25;;;19.69;100.00
48624;BME280;34422;45.802;16.114;2023-09-19T00:52:49;65867.38;;;19.52;100.00
48624;BME280;34422;45.802;16.114;2023-09-19T00:55:17;65861.38;;;19.46;100.00
48624;BME280;34422;45.802;16.114;2023-09-19T00:57:47;65865.75;;;19.50;100.00
48624;BME280;34422;45.802;16.114;2023-09-19T01:00:16;65871.72;;;19.56;100.00
48624;BME280;34422;45.802;16.114;2023-09-19T01:02:46;65867.38;;;19.52;100.00
48624;BME280;34422;45.802;16.114;2023-09-19T01:05:13;65863.03;;;19.48;100.00
48624;BME280;34422;45.802;16.114;2023-09-19T01:07:40;65858.69;;;19.44;100.00
48624;BME280;34422;45.802;16.114;2023-09-19T01:10:12;65859.22;;;19.44;100.00
48624;BME280;34422;45.802;16.114;2023-09-19T01:15:42;65857.59;;;19.43;100.00
48624;BME280;34422;45.802;16.114;2023-09-19T01:18:25;65851.63;;;19.37;100.00
48624;BME280;34422;45.802;16.114;2023-09-19T01:21:08;65837.53;;;19.24;100.00
48624;BME280;34422;45.802;16.114;2023-09-19T01:24:04;65838.09;;;19.25;100.00
48624;BME280;34422;45.802;16.114;2023-09-19T01:29:34;65845.66;;;19.34;100.00
48624;BME280;34422;45.802;16.114;2023-09-19T01:32:04;65845.66;;;19.32;100.00
48624;BME280;34422;45.802;16.114;2023-09-19T01:34:48;65845.13;;;19.31;100.00
48624;BME280;34422;45.802;16.114;2023-09-19T01:37:20;65853.81;;;19.34;100.00
48624;BME280;34422;45.802;16.114;2023-09-19T01:39:59;65851.63;;;19.37;100.00
48624;BME280;34422;45.802;16.114;2023-09-19T01:43:20;65851.59;;;19.42;100.00
48624;BME280;34422;45.802;16.114;2023-09-19T01:45:59;65861.94;;;19.47;100.00
48624;BME280;34422;45.802;16.114;2023-09-19T01:48:54;65861.41;;;19.44;100.00
48624;BME280;34422;45.802;16.114;2023-09-19T01:52:00;65862.47;;;19.47;100.00
48624;BME280;34422;45.802;16.114;2023-09-19T01:54:31;65866.28;;;19.51;100.00
48624;BME280;34422;45.802;16.114;2023-09-19T01:57:01;65868.47;;;19.53;100.00
48624;BME280;34422;45.802;16.114;2023-09-19T01:59:38;65866.84;;;19.51;100.00
48624;BME280;34422;45.802;16.114;2023-09-19T02:02:09;65863.56;;;19.51;100.00
48624;BME280;34422;45.802;16.114;2023-09-19T02:04:37;65863.56;;;19.51;100.00
48624;BME280;34422;45.802;16.114;2023-09-19T02:07:03;65863.56;;;19.48;100.00
48624;BME280;34422;45.802;16.114;2023-09-19T02:09:32;65861.38;;;19.46;100.00
48624;BME280;34422;45.802;16.114;2023-09-19T02:12:02;65861.41;;;19.41;100.00
48624;BME280;34422;45.802;16.114;2023-09-19T02:14:30;65847.31;;;19.28;100.00
48624;BME280;34422;45.802;16.114;2023-09-19T02:16:57;65834.28;;;19.21;100.00
48624;BME280;34422;45.802;16.114;2023-09-19T02:19:24;65826.13;;;19.16;100.00
48624;BME280;34422;45.802;16.114;2023-09-19T02:21:51;65825.03;;;19.17;100.00
48624;BME280;34422;45.802;16.114;2023-09-19T02:24:19;65824.53;;;19.12;100.00
48624;BME280;34422;45.802;16.114;2023-09-19T02:26:46;65826.69;;;19.14;100.00
48624;BME280;34422;45.802;16.114;2023-09-19T02:29:13;65824.53;;;19.12;100.00
48624;BME280;34422;45.802;16.114;2023-09-19T02:31:40;65824.53;;;19.12;100.00
48624;BME280;34422;45.802;16.114;2023-09-19T02:34:07;65821.28;;;19.11;100.00
48624;BME280;34422;45.802;16.114;2023-09-19T02:36:36;65819.09;;;19.12;100.00
48624;BME280;34422;45.802;16.114;2023-09-19T02:39:03;65833.22;;;19.15;100.00
48624;BME280;34422;45.802;16.114;2023-09-19T02:41:32;65826.66;;;19.19;100.00
48624;BME280;34422;45.802;16.114;2023-09-19T02:43:59;65835.38;;;19.22;100.00
48624;BME280;34422;45.802;16.114;2023-09-19T02:46:26;65837.53;;;19.24;100.00
48624;BME280;34422;45.802;16.114;2023-09-19T02:48:53;65836.44;;;19.23;100.00
48624;BME280;34422;45.802;16.114;2023-09-19T02:51:21;65841.88;;;19.28;100.00
48624;BME280;34422;45.802;16.114;2023-09-19T02:53:49;65845.66;;;19.29;100.00
48624;BME280;34422;45.802;16.114;2023-09-19T02:56:15;65841.88;;;19.28;100.00
48624;BME280;34422;45.802;16.114;2023-09-19T02:58:42;65840.78;;;19.27;100.00
48624;BME280;34422;45.802;16.114;2023-09-19T03:01:10;65840.78;;;19.27;100.00
48624;BME280;34422;45.802;16.114;2023-09-19T03:03:39;65845.13;;;19.31;100.00
48624;BME280;34422;45.802;16.114;2023-09-19T03:06:07;65845.66;;;19.32;100.00
48624;BME280;34422;45.802;16.114;2023-09-19T03:08:35;65845.66;;;19.29;100.00
48624;BME280;34422;45.802;16.114;2023-09-19T03:11:03;65829.94;;;19.17;100.00
48624;BME280;34422;45.802;16.114;2023-09-19T03:13:30;65820.69;;;19.13;100.00
48624;BME280;34422;45.802;16.114;2023-09-19T03:15:57;65828.34;;;19.13;100.00
48624;BME280;34422;45.802;16.114;2023-09-19T03:18:24;65831.03;;;19.18;100.00
48624;BME280;34422;45.802;16.114;2023-09-19T03:20:54;65833.75;;;19.21;100.00
48624;BME280;34422;45.802;16.114;2023-09-19T03:23:22;65829.94;;;19.17;100.00
48624;BME280;34422;45.802;16.114;2023-09-19T03:25:48;65833.75;;;19.18;100.00
48624;BME280;34422;45.802;16.114;2023-09-19T03:28:16;65831.03;;;19.18;100.00
48624;BME280;34422;45.802;16.114;2023-09-19T03:30:44;65820.19;;;19.13;100.00
48624;BME280;34422;45.802;16.114;2023-09-19T03:33:12;65831.56;;;19.16;100.00
48624;BME280;34422;45.802;16.114;2023-09-19T03:35:39;65828.84;;;19.16;100.00
48624;BME280;34422;45.802;16.114;2023-09-19T03:38:06;65833.22;;;19.15;100.00
48624;BME280;34422;45.802;16.114;2023-09-19T03:40:33;65830.50;;;19.15;100.00
48624;BME280;34422;45.802;16.114;2023-09-19T03:43:03;65828.84;;;19.18;100.00
48624;BME280;34422;45.802;16.114;2023-09-19T03:45:29;65832.09;;;19.19;100.00
48624;BME280;34422;45.802;16.114;2023-09-19T03:47:56;65825.59;;;19.18;100.00
48624;BME280;34422;45.802;16.114;2023-09-19T03:50:23;65829.41;;;19.16;100.00
48624;BME280;34422;45.802;16.114;2023-09-19T03:52:50;65827.22;;;19.17;100.00
48624;BME280;34422;45.802;16.114;2023-09-19T03:55:17;65823.41;;;19.16;100.00
48624;BME280;34422;45.802;16.114;2023-09-19T03:57:48;65822.34;;;19.10;100.00
48624;BME280;34422;45.802;16.114;2023-09-19T04:00:15;65818.00;;;19.06;100.00
48624;BME280;34422;45.802;16.114;2023-09-19T04:02:45;65815.88;;;18.99;100.00
48624;BME280;34422;45.802;16.114;2023-09-19T04:05:12;65801.19;;;18.93;100.00
48624;BME280;34422;45.802;16.114;2023-09-19T04:07:39;65801.22;;;18.88;100.00
48624;BME280;34422;45.802;16.114;2023-09-19T04:10:06;65791.47;;;18.78;100.00
48624;BME280;34422;45.802;16.114;2023-09-19T04:12:35;65794.19;;;18.78;100.00
48624;BME280;34422;45.802;16.114;2023-09-19T04:15:02;65794.19;;;18.84;100.00
48624;BME280;34422;45.802;16.114;2023-09-19T04:17:30;65789.81;;;18.85;100.00
48624;BME280;34422;45.802;16.114;2023-09-19T04:19:56;65792.00;;;18.76;100.00
48624;BME280;34422;45.802;16.114;2023-09-19T04:22:24;65781.19;;;18.66;100.00
48624;BME280;34422;45.802;16.114;2023-09-19T04:24:51;65768.69;;;18.62;100.00
48624;BME280;34422;45.802;16.114;2023-09-19T04:27:17;65765.97;;;18.57;100.00
48624;BME280;34422;45.802;16.114;2023-09-19T04:29:45;65764.88;;;18.56;100.00
48624;BME280;34422;45.802;16.114;2023-09-19T04:32:12;65764.88;;;18.56;100.00
48624;BME280;34422;45.802;16.114;2023-09-19T04:34:39;65765.97;;;18.57;100.00
48624;BME280;34422;45.802;16.114;2023-09-19T04:37:06;65762.72;;;18.54;100.00
48624;BME280;34422;45.802;16.114;2023-09-19T04:39:33;65759.47;;;18.51;100.00
48624;BME280;34422;45.802;16.114;2023-09-19T04:42:00;65758.91;;;18.48;100.00
48624;BME280;34422;45.802;16.114;2023-09-19T04:44:27;65744.28;;;18.42;100.00
48624;BME280;34422;45.802;16.114;2023-09-19T04:46:54;65759.47;;;18.46;100.00
48624;BME280;34422;45.802;16.114;2023-09-19T04:49:21;65756.22;;;18.48;100.00
48624;BME280;34422;45.802;16.114;2023-09-19T04:51:48;65753.50;;;18.45;100.00
48624;BME280;34422;45.802;16.114;2023-09-19T04:54:15;65763.25;;;18.55;100.00
48624;BME280;34422;45.802;16.114;2023-09-19T04:56:42;65771.94;;;18.60;100.00
48624;BME280;34422;45.802;16.114;2023-09-19T04:59:09;65766.50;;;18.60;100.00
48624;BME280;34422;45.802;16.114;2023-09-19T05:01:37;65776.28;;;18.64;100.00
48624;BME280;34422;45.802;16.114;2023-09-19T05:04:04;65775.19;;;18.68;100.00
48624;BME280;34422;45.802;16.114;2023-09-19T05:06:31;65776.28;;;18.67;100.00
48624;BME280;34422;45.802;16.114;2023-09-19T05:09:02;65764.88;;;18.56;100.00
48624;BME280;34422;45.802;16.114;2023-09-19T05:11:31;65767.06;;;18.58;100.00
48624;BME280;34422;45.802;16.114;2023-09-19T05:13:58;65769.22;;;18.58;100.00
48624;BME280;34422;45.802;16.114;2023-09-19T05:16:28;65775.75;;;18.66;100.00
48624;BME280;34422;45.802;16.114;2023-09-19T05:18:56;65781.16;;;18.71;100.00
48624;BME280;34422;45.802;16.114;2023-09-19T05:21:22;65789.84;;;18.79;100.00
48624;BME280;34422;45.802;16.114;2023-09-19T05:23:51;65795.25;;;18.85;100.00
48624;BME280;34422;45.802;16.114;2023-09-19T05:26:19;65786.56;;;18.81;100.00
48624;BME280;34422;45.802;16.114;2023-09-19T05:28:46;65786.03;;;18.84;100.00
48624;BME280;34422;45.802;16.114;2023-09-19T05:31:14;65802.84;;;18.92;100.00
48624;BME280;34422;45.802;16.114;2023-09-19T05:33:42;65818.56;;;19.04;100.00
48624;BME280;34422;45.802;16.114;2023-09-19T05:36:09;65813.66;;;19.07;100.00
48624;BME280;34422;45.802;16.114;2023-09-19T05:38:38;65829.94;;;19.17;100.00
48624;BME280;34422;45.802;16.114;2023-09-19T05:41:08;65840.81;;;19.25;100.00
48624;BME280;34422;45.802;16.114;2023-09-19T05:43:36;65826.69;;;19.16;100.00
48624;BME280;34422;45.802;16.114;2023-09-19T05:46:03;65814.75;;;19.08;100.00
48624;BME280;34422;45.802;16.114;2023-09-19T05:48:30;65828.84;;;19.16;100.00
48624;BME280;34422;45.802;16.114;2023-09-19T05:50:57;65835.91;;;19.25;100.00
48624;BME280;34422;45.802;16.114;2023-09-19T05:53:24;65844.59;;;19.28;100.00
48624;BME280;34422;45.802;16.114;2023-09-19T05:55:51;65869.56;;;19.51;100.00
48624;BME280;34422;45.802;16.114;2023-09-19T05:58:19;65872.25;;;19.57;100.00
48624;BME280;34422;45.802;16.114;2023-09-19T06:00:46;65896.69;;;19.77;100.00
48624;BME280;34422;45.802;16.114;2023-09-19T06:03:15;65915.66;;;19.97;100.00
48624;BME280;34422;45.802;16.114;2023-09-19T06:05:44;65934.09;;;20.14;100.00
48624;BME280;34422;45.802;16.114;2023-09-19T06:08:13;65953.09;;;20.32;100.00
48624;BME280;34422;45.802;16.114;2023-09-19T06:10:41;65979.72;;;20.54;100.00
48624;BME280;34422;45.802;16.114;2023-09-19T06:13:08;66009.53;;;20.87;100.00
48624;BME280;34422;45.802;16.114;2023-09-19T06:15:37;66028.50;;;21.10;100.00
48624;BME280;34422;45.802;16.114;2023-09-19T06:18:05;66060.59;;;21.35;100.00
48624;BME280;34422;45.802;16.114;2023-09-19T06:20:31;66077.97;;;21.51;100.00
48624;BME280;34422;45.802;16.114;2023-09-19T06:22:59;66070.38;;;21.44;100.00
48624;BME280;34422;45.802;16.114;2023-09-19T06:25:32;66077.97;;;21.54;100.00
48624;BME280;34422;45.802;16.114;2023-09-19T06:28:02;66091.00;;;21.66;100.00
48624;BME280;34422;45.802;16.114;2023-09-19T06:30:31;66107.88;;;21.77;100.00
48624;BME280;34422;45.802;16.114;2023-09-19T06:32:59;66130.16;;;21.95;100.00
48624;BME280;34422;45.802;16.114;2023-09-19T06:35:28;66153.53;;;22.19;100.00
48624;BME280;34422;45.802;16.114;2023-09-19T06:37:56;66178.53;;;22.43;100.00
48624;BME280;34422;45.802;16.114;2023-09-19T06:40:24;66156.22;;;22.24;100.00
48624;BME280;34422;45.802;16.114;2023-09-19T06:42:51;66155.63;;;22.31;100.00
48624;BME280;34422;45.802;16.114;2023-09-19T06:45:19;66152.97;;;22.21;100.00
48624;BME280;34422;45.802;16.114;2023-09-19T06:47:49;66133.97;;;22.01;100.00
48624;BME280;34422;45.802;16.114;2023-09-19T06:50:17;66137.75;;;22.07;100.00
48624;BME280;34422;45.802;16.114;2023-09-19T06:52:46;66131.81;;;21.99;100.00
48624;BME280;34422;45.802;16.114;2023-09-19T06:55:18;66129.63;;;21.94;100.00
48624;BME280;34422;45.802;16.114;2023-09-19T06:57:46;66109.50;;;21.78;100.00
48624;BME280;34422;45.802;16.114;2023-09-19T07:00:14;66088.31;;;21.58;100.00
48624;BME280;34422;45.802;16.114;2023-09-19T07:05:31;66070.34;;;21.47;100.00
48624;BME280;34422;45.802;16.114;2023-09-19T07:08:01;66060.06;;;21.32;100.00
48624;BME280;34422;45.802;16.114;2023-09-19T07:10:28;66050.28;;;21.28;100.00
48624;BME280;34422;45.802;16.114;2023-09-19T07:13:03;66044.28;;;21.22;100.00
48624;BME280;34422;45.802;16.114;2023-09-19T07:15:33;66043.75;;;21.17;100.00
48624;BME280;34422;45.802;16.114;2023-09-19T07:18:02;66040.50;;;21.14;100.00
48624;BME280;34422;45.802;16.114;2023-09-19T07:28:38;66091.00;;;21.66;100.00
48624;BME280;34422;45.802;16.114;2023-09-19T07:31:05;66091.56;;;21.61;100.00
48624;BME280;34422;45.802;16.114;2023-09-19T07:33:33;66080.16;;;21.51;100.00
48624;BME280;34422;45.802;16.114;2023-09-19T07:36:00;66066.59;;;21.38;100.00
48624;BME280;34422;45.802;16.114;2023-09-19T07:38:27;66041.59;;;21.15;100.00
48624;BME280;34422;45.802;16.114;2023-09-19T07:41:01;66049.19;;;21.22;100.00
48624;BME280;34422;45.802;16.114;2023-09-19T07:43:29;66044.31;;;21.20;100.00
48624;BME280;34422;45.802;16.114;2023-09-19T07:45:57;66059.00;;;21.31;100.00
48624;BME280;34422;45.802;16.114;2023-09-19T07:48:24;66074.72;;;21.46;100.00
48624;BME280;34422;45.802;16.114;2023-09-19T07:50:51;66102.44;;;21.72;100.00
48624;BME280;34422;45.802;16.114;2023-09-19T07:53:17;66096.47;;;21.66;100.00
48624;BME280;34422;45.802;16.114;2023-09-19T07:55:44;66111.66;;;21.83;100.00
48624;BME280;34422;45.802;16.114;2023-09-19T07:58:14;66123.06;;;21.91;100.00
48624;BME280;34422;45.802;16.114;2023-09-19T08:00:43;66145.34;;;22.14;100.00
48624;BME280;34422;45.802;16.114;2023-09-19T08:03:10;66133.94;;;22.04;100.00
48624;BME280;34422;45.802;16.114;2023-09-19T08:06:14;66167.66;;;22.32;100.00
48624;BME280;34422;45.802;16.114;2023-09-19T08:08:46;66201.91;;;22.64;100.00
48624;BME280;34422;45.802;16.114;2023-09-19T08:11:14;66183.94;;;22.53;100.00
48624;BME280;34422;45.802;16.114;2023-09-19T08:13:47;66157.91;;;22.18;100.00
48624;BME280;34422;45.802;16.114;2023-09-19T08:16:16;66112.75;;;21.84;100.00
48624;BME280;34422;45.802;16.114;2023-09-19T08:18:47;66057.88;;;21.35;100.00
48624;BME280;34422;45.802;16.114;2023-09-19T08:21:14;66056.28;;;21.28;100.00
48624;BME280;34422;45.802;16.114;2023-09-19T08:23:43;66029.09;;;21.03;100.00
48624;BME280;34422;45.802;16.114;2023-09-19T08:26:12;66014.41;;;20.92;100.00
48624;BME280;34422;45.802;16.114;2023-09-19T08:28:39;65985.66;;;20.65;100.00
48624;BME280;34422;45.802;16.114;2023-09-19T08:31:09;65980.81;;;20.53;100.00
48624;BME280;34422;45.802;16.114;2023-09-19T08:33:36;65942.78;;;20.22;100.00
48624;BME280;34422;45.802;16.114;2023-09-19T08:36:04;65916.19;;;20.00;100.00
48624;BME280;34422;45.802;16.114;2023-09-19T08:38:33;65914.03;;;19.93;100.00
48624;BME280;34422;45.802;16.114;2023-09-19T08:41:05;65911.88;;;19.91;100.00
48624;BME280;34422;45.802;16.114;2023-09-19T08:43:33;65900.44;;;19.88;100.00
48624;BME280;34422;45.802;16.114;2023-09-19T08:46:11;65916.19;;;19.98;100.00
48624;BME280;34422;45.802;16.114;2023-09-19T08:48:57;65909.13;;;19.94;100.00
48624;BME280;34422;45.802;16.114;2023-09-19T08:51:45;65924.34;;;20.05;100.00
48624;BME280;34422;45.802;16.114;2023-09-19T08:54:25;65923.25;;;20.04;100.00
48624;BME280;34422;45.802;16.114;2023-09-19T08:56:59;65943.34;;;20.20;100.00
48624;BME280;34422;45.802;16.114;2023-09-19T08:59:29;65946.56;;;20.29;100.00
48624;BME280;34422;45.802;16.114;2023-09-19T09:01:57;65969.94;;;20.48;100.00
48624;BME280;34422;45.802;16.114;2023-09-19T09:04:24;65982.41;;;20.60;100.00
48624;BME280;34422;45.802;16.114;2023-09-19T09:06:53;65972.13;;;20.50;100.00
48624;BME280;34422;45.802;16.114;2023-09-19T09:09:21;65957.97;;;20.39;100.00
48624;BME280;34422;45.802;16.114;2023-09-19T09:11:48;65963.97;;;20.40;100.00
48624;BME280;34422;45.802;16.114;2023-09-19T09:14:18;65956.91;;;20.36;100.00
48624;BME280;34422;45.802;16.114;2023-09-19T09:16:46;65963.41;;;20.42;100.00
48624;BME280;34422;45.802;16.114;2023-09-19T09:19:15;65938.97;;;20.19;100.00
48624;BME280;34422;45.802;16.114;2023-09-19T09:21:51;65934.06;;;20.19;100.00
48624;BME280;34422;45.802;16.114;2023-09-19T09:24:28;65936.28;;;20.14;100.00
48624;BME280;34422;45.802;16.114;2023-09-19T09:26:56;65904.78;;;19.90;100.00
48624;BME280;34422;45.802;16.114;2023-09-19T09:29:46;65923.25;;;19.99;100.00
48624;BME280;34422;45.802;16.114;2023-09-19T09:32:24;65905.34;;;19.90;100.00
48624;BME280;34422;45.802;16.114;2023-09-19T09:34:59;65909.69;;;19.94;100.00
48624;BME280;34422;45.802;16.114;2023-09-19T09:37:27;65923.25;;;20.04;100.00
48624;BME280;34422;45.802;16.114;2023-09-19T09:40:02;65925.41;;;20.06;100.00
48624;BME280;34422;45.802;16.114;2023-09-19T09:42:41;65930.84;;;20.11;100.00
48624;BME280;34422;45.802;16.114;2023-09-19T09:45:14;65938.41;;;20.23;100.00
48624;BME280;34422;45.802;16.114;2023-09-19T09:47:48;65928.66;;;20.09;100.00
48624;BME280;34422;45.802;16.114;2023-09-19T09:50:29;65941.13;;;20.26;100.00
48624;BME280;34422;45.802;16.114;2023-09-19T09:53:18;65925.38;;;20.11;100.00
48624;BME280;34422;45.802;16.114;2023-09-19T09:56:05;65948.75;;;20.26;100.00
48624;BME280;34422;45.802;16.114;2023-09-19T09:58:36;65964.50;;;20.48;100.00
48624;BME280;34422;45.802;16.114;2023-09-19T10:01:14;65946.56;;;20.29;100.00
48624;BME280;34422;45.802;16.114;2023-09-19T10:03:45;65941.16;;;20.18;100.00
48624;BME280;34422;45.802;16.114;2023-09-19T10:06:16;65953.09;;;20.32;100.00
48624;BME280;34422;45.802;16.114;2023-09-19T10:11:41;65989.47;;;20.69;100.00
48624;BME280;34422;45.802;16.114;2023-09-19T10:14:11;66020.94;;;20.96;100.00
48624;BME280;34422;45.802;16.114;2023-09-19T10:16:58;66058.97;;;21.34;100.00
48624;BME280;34422;45.802;16.114;2023-09-19T10:19:37;66062.78;;;21.35;100.00
48624;BME280;34422;45.802;16.114;2023-09-19T10:22:05;66056.22;;;21.34;100.00
48624;BME280;34422;45.802;16.114;2023-09-19T10:24:35;66026.34;;;21.06;100.00
48624;BME280;34422;45.802;16.114;2023-09-19T10:27:06;66045.38;;;21.21;100.00
48624;BME280;34422;45.802;16.114;2023-09-19T10:29:36;66075.28;;;21.44;100.00
48624;BME280;34422;45.802;16.114;2023-09-19T10:32:05;66108.94;;;21.78;100.00
48624;BME280;34422;45.802;16.114;2023-09-19T10:34:36;66083.97;;;21.54;100.00
48624;BME280;34422;45.802;16.114;2023-09-19T10:37:04;66101.34;;;21.71;100.00
48624;BME280;34422;45.802;16.114;2023-09-19T10:39:32;66082.88;;;21.53;100.00
48624;BME280;34422;45.802;16.114;2023-09-19T10:42:02;66089.38;;;21.64;100.00
48624;BME280;34422;45.802;16.114;2023-09-19T10:44:32;66110.03;;;21.76;100.00
48624;BME280;34422;45.802;16.114;2023-09-19T10:46:59;66098.59;;;21.73;100.00
48624;BME280;34422;45.802;16.114;2023-09-19T10:49:26;66104.59;;;21.74;100.00
48624;BME280;34422;45.802;16.114;2023-09-19T10:51:55;66103.53;;;21.73;100.00
48624;BME280;34422;45.802;16.114;2023-09-19T10:54:29;66113.84;;;21.82;100.00
48624;BME280;34422;45.802;16.114;2023-09-19T10:56:59;66146.97;;;22.18;100.00
48624;BME280;34422;45.802;16.114;2023-09-19T10:59:27;66143.69;;;22.20;100.00
48624;BME280;34422;45.802;16.114;2023-09-19T11:02:16;66161.16;;;22.26;100.00
48624;BME280;34422;45.802;16.114;2023-09-19T11:04:44;66174.72;;;22.39;100.00
48624;BME280;34422;45.802;16.114;2023-09-19T11:07:14;66166.56;;;22.31;100.00
48624;BME280;34422;45.802;16.114;2023-09-19T11:09:55;66144.28;;;22.11;100.00
48624;BME280;34422;45.802;16.114;2023-09-19T11:16:17;66192.66;;;22.56;100.00
48624;BME280;34422;45.802;16.114;2023-09-19T11:26:48;66164.38;;;22.32;100.00
48624;BME280;34422;45.802;16.114;2023-09-19T11:29:25;66187.22;;;22.51;100.00
48624;BME280;34422;45.802;16.114;2023-09-19T11:31:52;66198.59;;;22.66;100.00
48624;BME280;34422;45.802;16.114;2023-09-19T11:34:45;66236.69;;;22.99;100.00
48624;BME280;34422;45.802;16.114;2023-09-19T11:40:10;66169.25;;;22.39;100.00
48624;BME280;34422;45.802;16.114;2023-09-19T11:42:44;66132.34;;;21.97;100.00
48624;BME280;34422;45.802;16.114;2023-09-19T11:48:15;66204.03;;;22.69;100.00
48624;BME280;34422;45.802;16.114;2023-09-19T11:50:43;66222.59;;;22.81;100.00
48624;BME280;34422;45.802;16.114;2023-09-19T11:53:13;66235.09;;;22.95;100.00
48624;BME280;34422;45.802;16.114;2023-09-19T11:55:44;66195.34;;;22.61;100.00
48624;BME280;34422;45.802;16.114;2023-09-19T11:58:12;66167.66;;;22.32;100.00
48624;BME280;34422;45.802;16.114;2023-09-19T12:00:43;66154.63;;;22.20;100.00
48624;BME280;34422;45.802;16.114;2023-09-19T12:03:12;66196.97;;;22.65;100.00
48624;BME280;34422;45.802;16.114;2023-09-19T12:05:41;66187.72;;;22.56;100.00
48624;BME280;34422;45.802;16.114;2023-09-19T12:08:08;66213.31;;;22.78;100.00
48624;BME280;34422;45.802;16.114;2023-09-19T12:10:48;66246.00;;;23.00;100.00
48624;BME280;34422;45.802;16.114;2023-09-19T12:13:17;66263.84;;;23.30;100.00
48624;BME280;34422;45.802;16.114;2023-09-19T12:15:45;66280.72;;;23.43;100.00
48624;BME280;34422;45.802;16.114;2023-09-19T12:18:29;66288.94;;;23.46;100.00
48624;BME280;34422;45.802;16.114;2023-09-19T12:20:57;66276.94;;;23.37;100.00
48624;BME280;34422;45.802;16.114;2023-09-19T12:23:24;66301.44;;;23.57;100.00
48624;BME280;34422;45.802;16.114;2023-09-19T12:25:54;66313.94;;;23.71;100.00
48624;BME280;34422;45.802;16.114;2023-09-19T12:28:27;66323.69;;;23.88;100.00
48624;BME280;34422;45.802;16.114;2023-09-19T12:30:55;66325.91;;;23.83;100.00
48624;BME280;34422;45.802;16.114;2023-09-19T12:33:22;66300.88;;;23.62;100.00
48624;BME280;34422;45.802;16.114;2023-09-19T12:35:52;66318.88;;;23.73;100.00
48624;BME280;34422;45.802;16.114;2023-09-19T12:38:25;66316.66;;;23.77;100.00
48624;BME280;34422;45.802;16.114;2023-09-19T12:40:56;66315.06;;;23.70;100.00
48624;BME280;34422;45.802;16.114;2023-09-19T12:43:28;66322.69;;;23.77;100.00
48624;BME280;34422;45.802;16.114;2023-09-19T12:45:59;66292.72;;;23.52;100.00
48624;BME280;34422;45.802;16.114;2023-09-19T12:48:26;66310.16;;;23.65;100.00
48624;BME280;34422;45.802;16.114;2023-09-19T12:51:05;66305.75;;;23.69;100.00
48624;BME280;34422;45.802;16.114;2023-09-19T12:53:45;66310.69;;;23.68;100.00
48624;BME280;34422;45.802;16.114;2023-09-19T12:56:16;66333.53;;;23.90;100.00
48624;BME280;34422;45.802;16.114;2023-09-19T12:58:55;66309.56;;;23.70;100.00
48624;BME280;34422;45.802;16.114;2023-09-19T13:01:23;66362.34;;;24.19;100.00
48624;BME280;34422;45.802;16.114;2023-09-19T13:06:41;66381.44;;;24.34;100.00
48624;BME280;34422;45.802;16.114;2023-09-19T13:09:11;66365.09;;;24.19;100.00
48624;BME280;34422;45.802;16.114;2023-09-19T13:11:39;66392.38;;;24.39;100.00
48624;BME280;34422;45.802;16.114;2023-09-19T13:14:23;66406.47;;;24.58;100.00
48624;BME280;34422;45.802;16.114;2023-09-19T13:19:43;66352.00;;;24.09;100.00
48624;BME280;34422;45.802;16.114;2023-09-19T13:25:14;66368.91;;;24.25;100.00
48624;BME280;34422;45.802;16.114;2023-09-19T13:27:46;66385.25;;;24.35;100.00
48624;BME280;34422;45.802;16.114;2023-09-19T13:30:14;66387.44;;;24.37;100.00
48624;BME280;34422;45.802;16.114;2023-09-19T13:32:41;66378.16;;;24.34;100.00
48624;BME280;34422;45.802;16.114;2023-09-19T13:35:10;66396.72;;;24.46;100.00
48624;BME280;34422;45.802;16.114;2023-09-19T13:37:41;66400.47;;;24.55;100.00
48624;BME280;34422;45.802;16.114;2023-09-19T13:40:14;66408.69;;;24.55;99.02
48624;BME280;34422;45.802;16.114;2023-09-19T13:42:41;66400.47;;;24.55;99.75